Time;durP1;ratioP1;P1;durP2;ratioP2;P2;SDS_P1;SDS_P2;PMS_P1;PMS_P2;Temp;Humidity;BMP_temperature;BMP_pressure;BME280_temperature;BME280_humidity;BME280_pressure;Samples;Min_cycle;Max_cycle;Signal;HPM_P1;HPM_P2
2022/06/28 00:04:54;;;;;;;10.65;8.43;;;;;;;17.22;100.00;96980.38;10413584;28;20208;-57
2022/06/28 00:09:55;;;;;;;11.38;8.60;;;;;;;17.22;100.00;96973.25;10413560;28;20283;-56
2022/06/28 00:20:14;;;;;;;12.40;9.40;;;;;;;17.28;100.00;96966.38;10413063;28;20200;-58
2022/06/28 00:25:15;;;;;;;12.50;9.70;;;;;;;17.22;100.00;96990.97;10412698;28;20208;-59
2022/06/28 00:30:16;;;;;;;11.02;8.77;;;;;;;17.21;100.00;96968.16;10412248;28;20279;-60
2022/06/28 00:35:17;;;;;;;16.58;11.45;;;;;;;17.28;100.00;96943.34;10394912;28;20221;-57
2022/06/28 00:40:18;;;;;;;11.95;10.65;;;;;;;17.31;100.00;96920.97;10412565;28;20192;-60
2022/06/28 00:45:18;;;;;;;14.77;11.20;;;;;;;17.27;100.00;96920.56;10411808;28;20259;-56
2022/06/28 00:50:19;;;;;;;17.02;12.43;;;;;;;17.15;100.00;96929.22;10412243;28;20707;-58
2022/06/28 00:55:19;;;;;;;14.73;11.63;;;;;;;17.09;100.00;96899.84;10411681;28;20231;-58
2022/06/28 01:00:20;;;;;;;21.42;14.52;;;;;;;17.11;100.00;96926.94;10393968;28;20189;-53
2022/06/28 01:05:21;;;;;;;21.27;10.88;;;;;;;17.14;100.00;96904.56;10411777;28;20682;-57
2022/06/28 01:10:23;;;;;;;17.65;10.32;;;;;;;17.09;100.00;96913.09;10393773;28;20188;-54
2022/06/28 01:15:24;;;;;;;12.20;9.60;;;;;;;17.06;100.00;96905.53;10411602;28;20311;-53
2022/06/28 01:20:30;;;;;;;14.15;10.05;;;;;;;16.97;100.00;96890.81;10393319;28;20686;-57
2022/06/28 01:25:42;;;;;;;12.45;11.13;;;;;;;16.98;100.00;96897.72;10393749;28;20208;-54
2022/06/28 01:30:43;;;;;;;20.75;12.63;;;;;;;17.04;100.00;96923.41;10392862;28;20185;-57
2022/06/28 01:36:08;;;;;;;14.65;13.02;;;;;;;17.19;100.00;96955.09;10396003;28;20222;-58
2022/06/28 01:41:32;;;;;;;9.15;8.25;;;;;;;17.20;100.00;96985.06;10402004;28;20189;-59
2022/06/28 01:46:33;;;;;;;13.73;10.57;;;;;;;17.15;100.00;96955.69;10418814;28;20663;-57
2022/06/28 01:51:38;;;;;;;26.45;18.63;;;;;;;16.86;100.00;96968.03;10385556;28;20189;-57
2022/06/28 01:56:42;;;;;;;30.92;21.70;;;;;;;16.54;100.00;96978.13;10401125;28;20252;-57
2022/06/28 02:01:47;;;;;;;40.45;27.10;;;;;;;16.38;100.00;97009.06;10404231;28;20286;-57
2022/06/28 02:06:51;;;;;;;41.65;28.13;;;;;;;16.38;100.00;97039.97;10400778;28;20253;-57
2022/06/28 02:11:53;;;;;;;47.17;31.38;;;;;;;16.19;100.00;97046.66;10400654;28;20560;-56
2022/06/28 02:16:58;;;;;;;46.65;32.08;;;;;;;15.94;100.00;97049.59;10399864;28;20653;-57
2022/06/28 02:21:58;;;;;;;51.33;33.53;;;;;;;15.91;100.00;97060.53;10418038;28;20188;-57
2022/06/28 02:27:02;;;;;;;55.80;37.13;;;;;;;15.88;100.00;97071.47;10399437;28;20205;-56
2022/06/28 02:32:03;;;;;;;62.00;40.15;;;;;;;15.75;100.00;97073.88;10399368;28;20192;-56
2022/06/28 02:42:23;;;;;;;61.72;38.15;;;;;;;15.52;100.00;97094.03;10417273;28;20180;-57
2022/06/28 02:47:23;;;;;;;66.15;41.10;;;;;;;15.44;100.00;97095.94;10437819;23;20274;-59
2022/06/28 02:52:23;;;;;;;68.78;42.30;;;;;;;15.47;100.00;97101.66;10457881;28;20184;-53
2022/06/28 02:57:24;;;;;;;68.93;41.33;;;;;;;15.43;100.00;97104.84;10457643;28;20220;-59
2022/06/28 03:02:25;;;;;;;57.10;37.75;;;;;;;15.37;100.00;97101.09;10439581;28;20220;-59
2022/06/28 03:07:25;;;;;;;65.68;40.28;;;;;;;15.44;100.00;97101.22;10457196;28;20211;-58
2022/06/28 03:12:26;;;;;;;65.28;40.60;;;;;;;15.37;100.00;97105.56;10439299;28;20192;-54
2022/06/28 03:17:27;;;;;;;69.00;41.63;;;;;;;15.41;100.00;97118.22;10456846;28;20225;-58
2022/06/28 03:22:27;;;;;;;65.85;39.20;;;;;;;15.35;100.00;97111.00;10456948;28;20192;-57
2022/06/28 03:27:27;;;;;;;70.95;42.63;;;;;;;15.32;100.00;97117.44;10456309;28;20204;-57
2022/06/28 03:32:28;;;;;;;65.28;40.58;;;;;;;15.40;100.00;97110.47;10447312;28;20184;-59
2022/06/28 03:37:29;;;;;;;69.63;42.33;;;;;;;15.41;100.00;97110.31;10438162;28;20221;-58
2022/06/28 03:42:33;;;;;;;71.22;40.97;;;;;;;15.45;100.00;97105.47;10438321;28;20270;-59
2022/06/28 03:47:34;;;;;;;64.88;40.38;;;;;;;15.43;100.00;97107.47;10455488;28;20232;-60
2022/06/28 03:52:54;;;;;;;59.08;38.40;;;;;;;15.42;100.00;97093.47;10455398;28;20211;-60
2022/06/28 03:58:18;;;;;;;63.03;39.65;;;;;;;15.44;100.00;97095.94;10443602;28;20236;-60
2022/06/28 04:03:18;;;;;;;62.60;39.08;;;;;;;15.38;100.00;97097.44;10454819;28;20203;-59
2022/06/28 04:08:19;;;;;;;56.63;37.72;;;;;;;15.48;100.00;97099.84;10455064;28;20208;-59
2022/06/28 04:13:23;;;;;;;54.72;39.55;;;;;;;15.30;100.00;97103.63;10437195;28;20188;-59
2022/06/28 04:18:23;;;;;;;53.72;39.28;;;;;;;15.12;100.00;97089.91;10438176;28;20724;-56
2022/06/28 04:23:48;;;;;;;61.53;41.40;;;;;;;15.11;100.00;97061.88;10436835;28;20279;-60
2022/06/28 04:28:49;;;;;;;56.25;39.75;;;;;;;15.06;100.00;97061.56;10436579;28;20302;-61
2022/06/28 04:33:55;;;;;;;50.55;37.08;;;;;;;15.09;100.00;97071.78;10436245;28;20196;-63
2022/06/28 04:39:00;;;;;;;56.40;39.17;;;;;;;15.21;100.00;97067.72;10435644;28;20220;-62
2022/06/28 04:44:07;;;;;;;49.97;38.53;;;;;;;15.24;100.00;97077.94;10435755;28;20184;-62
2022/06/28 04:49:11;;;;;;;42.00;34.45;;;;;;;15.37;100.00;97068.59;10435295;28;20737;-63
2022/06/28 04:54:17;;;;;;;43.38;34.80;;;;;;;15.38;100.00;97071.06;10453323;28;20202;-62
2022/06/28 04:59:37;;;;;;;54.63;40.15;;;;;;;15.51;100.00;97066.00;10411901;28;20296;-62
2022/06/28 05:04:44;;;;;;;45.80;34.40;;;;;;;15.61;100.00;97065.72;10435223;28;20777;-62
2022/06/28 05:09:54;;;;;;;48.80;35.08;;;;;;;15.31;100.00;97063.03;10434890;28;20192;-62
2022/06/28 05:14:55;;;;;;;41.85;32.30;;;;;;;15.67;100.00;97057.09;10435027;28;20239;-62
2022/06/28 05:19:58;;;;;;;36.10;29.00;;;;;;;15.62;100.00;97053.34;10434650;28;20184;-62
2022/06/28 05:24:59;;;;;;;30.83;23.90;;;;;;;15.81;100.00;97062.59;10435034;28;20184;-62
2022/06/28 05:30:00;;;;;;;26.83;21.90;;;;;;;15.95;100.00;97051.22;10434377;28;20200;-61
2022/06/28 05:35:00;;;;;;;22.55;19.35;;;;;;;15.26;100.00;97057.44;10433844;28;20223;-61
2022/06/28 05:40:02;;;;;;;30.08;23.35;;;;;;;15.69;100.00;97062.19;10451256;28;20195;-60
2022/06/28 05:45:02;;;;;;;30.73;25.75;;;;;;;16.09;100.00;97078.63;10434504;28;20274;-61
2022/06/28 05:50:03;;;;;;;32.20;24.33;;;;;;;15.87;100.00;97075.09;10434489;28;20236;-60
2022/06/28 05:55:04;;;;;;;28.60;23.45;;;;;;;16.37;100.00;97078.81;10452004;28;20306;-61
2022/06/28 06:00:05;;;;;;;27.50;21.52;;;;;;;16.75;100.00;97083.13;10434157;28;20191;-62
2022/06/28 06:05:15;;;;;;;28.42;22.65;;;;;;;16.89;100.00;97071.72;10451959;28;20227;-62
2022/06/28 06:10:16;;;;;;;31.58;24.33;;;;;;;16.83;100.00;97076.91;10433722;28;20793;-63
2022/06/28 06:15:16;;;;;;;28.92;23.75;;;;;;;16.99;100.00;97073.25;10451664;28;20224;-62
2022/06/28 06:20:16;;;;;;;29.80;25.30;;;;;;;16.58;100.00;97077.22;10451306;28;20188;-62
2022/06/28 06:25:17;;;;;;;29.50;25.75;;;;;;;16.27;100.00;97074.81;10440982;28;20286;-62
2022/06/28 06:30:18;;;;;;;36.95;27.67;;;;;;;16.67;100.00;97088.53;10440918;28;20185;-63
2022/06/28 06:35:35;;;;;;;32.33;26.73;;;;;;;17.00;100.00;97078.34;10440830;28;20254;-62
2022/06/28 06:40:36;;;;;;;34.15;27.20;;;;;;;17.10;100.00;97088.63;10440563;28;20299;-62
2022/06/28 06:45:37;;;;;;;35.63;29.08;;;;;;;17.14;100.00;97097.03;10439907;28;20297;-62
2022/06/28 06:50:37;;;;;;;37.58;30.75;;;;;;;17.09;100.00;97116.94;10440207;28;20183;-59
2022/06/28 06:55:38;;;;;;;46.95;34.40;;;;;;;17.02;100.00;97123.16;10457512;28;20303;-62
2022/06/28 07:00:39;;;;;;;41.85;33.08;;;;;;;17.20;100.00;97128.84;10440283;28;20188;-61
2022/06/28 07:05:40;;;;;;;42.67;33.10;;;;;;;17.27;100.00;97145.63;10439571;28;20565;-63
2022/06/28 07:10:40;;;;;;;37.30;30.15;;;;;;;17.50;100.00;97147.25;10457203;28;20188;-62
2022/06/28 07:15:41;;;;;;;42.15;30.23;;;;;;;17.60;100.00;97155.72;10439129;28;20277;-63
2022/06/28 07:20:41;;;;;;;38.83;29.50;;;;;;;17.44;100.00;97162.09;10438860;28;20222;-58
2022/06/28 07:25:41;;;;;;;35.33;26.83;;;;;;;17.19;100.00;97169.56;10438847;28;20215;-59
2022/06/28 07:30:42;;;;;;;27.02;20.52;;;;;;;16.99;100.00;97169.34;10438323;28;20210;-62
2022/06/28 07:35:44;;;;;;;25.30;19.20;;;;;;;17.07;100.00;97169.22;10437428;28;20246;-63
2022/06/28 07:40:44;;;;;;;27.83;21.92;;;;;;;17.16;100.00;97166.47;10439013;28;20207;-62
2022/06/28 07:46:08;;;;;;;28.27;21.52;;;;;;;17.31;100.00;97171.72;10455252;28;20232;-63
2022/06/28 07:56:30;;;;;;;30.13;23.92;;;;;;;16.87;100.00;97192.00;10437700;28;20709;-62
2022/06/28 08:01:30;;;;;;;29.23;23.25;;;;;;;17.12;100.00;97189.88;10437655;28;20195;-63
2022/06/28 08:06:32;;;;;;;18.92;16.08;;;;;;;17.32;100.00;97195.38;10437441;28;20203;-63
2022/06/28 08:11:33;;;;;;;13.57;12.15;;;;;;;17.79;100.00;97186.06;10455211;28;20619;-63
2022/06/28 08:16:34;;;;;;;16.73;14.02;;;;;;;18.16;100.00;97197.41;10436522;28;20230;-63
2022/06/28 08:21:38;;;;;;;16.05;14.35;;;;;;;19.02;100.00;97184.81;10436656;28;20287;-61
2022/06/28 08:26:42;;;;;;;18.85;16.02;;;;;;;19.85;100.00;97186.47;10454563;28;20282;-59
2022/06/28 08:31:43;;;;;;;24.95;21.10;;;;;;;19.01;100.00;97207.09;10441452;28;20641;-61
2022/06/28 08:36:43;;;;;;;24.48;21.70;;;;;;;19.64;100.00;97206.06;10438009;28;20311;-62
2022/06/28 08:41:46;;;;;;;23.77;21.08;;;;;;;20.09;100.00;97188.53;10456960;28;20584;-61
2022/06/28 08:46:50;;;;;;;27.15;24.17;;;;;;;18.52;100.00;97207.00;10474168;22;20239;-58
2022/06/28 08:51:52;;;;;;;26.35;21.75;;;;;;;19.93;100.00;97208.34;10453774;28;20191;-59
2022/06/28 08:56:53;;;;;;;24.08;20.35;;;;;;;21.14;100.00;97181.53;10452829;28;20224;-57
2022/06/28 09:01:53;;;;;;;24.33;20.42;;;;;;;21.80;95.34;97172.31;10453319;28;20192;-56
2022/06/28 09:06:53;;;;;;;18.55;16.50;;;;;;;23.16;81.09;97115.50;10452737;28;20208;-57
2022/06/28 09:11:54;;;;;;;23.20;20.73;;;;;;;20.29;99.32;97196.50;10452983;28;20196;-57
2022/06/28 09:16:55;;;;;;;20.20;18.08;;;;;;;22.50;91.61;97165.19;10452740;28;20358;-55
2022/06/28 09:21:55;;;;;;;18.40;16.50;;;;;;;23.04;80.55;97120.75;10452648;28;20195;-56
2022/06/28 09:27:06;;;;;;;13.85;12.27;;;;;;;23.78;75.71;97112.50;10452846;28;20572;-57
2022/06/28 09:32:07;;;;;;;17.00;14.25;;;;;;;22.84;79.22;97130.91;10451857;28;20566;-53
2022/06/28 09:37:07;;;;;;;18.15;14.60;;;;;;;23.87;74.09;97099.59;10452297;28;20220;-58
2022/06/28 09:42:11;;;;;;;16.42;14.88;;;;;;;24.07;72.12;97093.91;10434674;28;20200;-58
2022/06/28 09:47:12;;;;;;;16.98;15.27;;;;;;;24.51;71.11;97096.19;10451905;28;20228;-54
2022/06/28 09:52:13;;;;;;;14.80;11.20;;;;;;;24.29;71.23;97093.28;10434489;28;20191;-55
2022/06/28 09:57:17;;;;;;;16.20;10.98;;;;;;;23.94;71.13;97094.16;10436783;28;20230;-52
2022/06/28 10:02:18;;;;;;;16.42;12.93;;;;;;;23.26;76.77;97158.53;10460109;28;20242;-57
2022/06/28 10:07:19;;;;;;;13.82;12.43;;;;;;;23.72;75.94;97137.50;10459865;28;20243;-54
2022/06/28 10:17:47;;;;;;;13.18;10.65;;;;;;;26.17;62.32;96994.13;10444112;28;20231;-56
2022/06/28 10:22:47;;;;;;;6.63;6.03;;;;;;;27.06;58.53;96970.63;10459296;28;20215;-55
2022/06/28 10:27:49;;;;;;;8.90;7.67;;;;;;;27.95;54.47;96919.81;10459006;28;20242;-56
2022/06/28 10:33:13;;;;;;;9.40;8.43;;;;;;;26.42;61.08;97027.75;10457809;28;20449;-56
2022/06/28 10:38:13;;;;;;;11.73;10.40;;;;;;;25.14;63.36;97046.22;10458619;28;20648;-53
2022/06/28 10:43:34;;;;;;;12.60;10.40;;;;;;;24.46;66.35;97077.34;10458173;28;20290;-53
2022/06/28 10:48:58;;;;;;;13.80;9.60;;;;;;;24.44;70.72;97128.47;10440430;28;20240;-58
2022/06/28 10:54:07;;;;;;;10.57;8.65;;;;;;;26.54;60.45;96990.81;10447374;28;20218;-52
2022/06/28 10:59:10;;;;;;;8.60;7.70;;;;;;;26.70;61.63;97024.84;10457613;28;20232;-58
2022/06/28 11:04:19;;;;;;;7.55;6.70;;;;;;;28.32;53.19;96918.88;10457492;28;20188;-56
2022/06/28 11:09:44;;;;;;;7.50;5.15;;;;;;;27.60;53.80;96918.56;10457366;28;20219;-52
2022/06/28 11:14:54;;;;;;;6.55;5.32;;;;;;;27.73;52.06;96893.88;10457185;28;20646;-56
2022/06/28 11:19:57;;;;;;;4.82;4.13;;;;;;;29.37;50.35;96916.00;10456932;28;20607;-58
2022/06/28 11:25:02;;;;;;;6.53;5.88;;;;;;;29.85;49.16;96898.34;10456841;28;20192;-55
2022/06/28 11:30:02;;;;;;;6.70;5.78;;;;;;;27.53;54.14;96950.28;10456327;28;20216;-53
2022/06/28 11:35:07;;;;;;;8.25;5.28;;;;;;;27.50;53.09;96930.06;10456318;28;20231;-58
2022/06/28 11:40:08;;;;;;;5.13;4.63;;;;;;;28.48;51.26;96919.69;10456397;28;20261;-53
2022/06/28 11:45:11;;;;;;;6.80;5.07;;;;;;;28.88;51.28;96933.53;10456010;28;20278;-58
2022/06/28 11:50:17;;;;;;;6.05;4.25;;;;;;;28.49;48.23;96820.81;10438116;28;20244;-56
2022/06/28 11:55:19;;;;;;;5.55;5.07;;;;;;;28.20;51.59;96896.75;10455741;28;20587;-58
2022/06/28 12:00:22;;;;;;;7.40;6.57;;;;;;;26.91;56.39;96981.22;10455235;28;20222;-58
2022/06/28 12:05:29;;;;;;;8.27;6.45;;;;;;;27.09;55.83;96964.75;10455406;28;20295;-58
2022/06/28 12:10:31;;;;;;;7.72;5.28;;;;;;;27.13;53.75;96916.63;10455276;28;20203;-57
2022/06/28 12:15:32;;;;;;;5.53;4.80;;;;;;;27.16;52.38;96897.28;10454942;28;20698;-60
2022/06/28 12:20:33;;;;;;;5.00;4.55;;;;;;;27.15;52.95;96928.75;10454504;28;20314;-56
2022/06/28 12:25:33;;;;;;;4.80;4.30;;;;;;;27.51;50.05;96863.63;10454387;28;20238;-53
2022/06/28 12:30:34;;;;;;;4.13;3.80;;;;;;;29.00;47.96;96864.75;10454143;28;20192;-55
2022/06/28 12:35:34;;;;;;;5.43;4.80;;;;;;;28.10;51.30;96908.28;10453717;28;20315;-56
2022/06/28 12:40:34;;;;;;;4.97;4.33;;;;;;;28.31;50.57;96908.34;10453940;28;20430;-54
2022/06/28 12:45:35;;;;;;;6.57;4.87;;;;;;;27.99;50.46;96877.81;10453428;28;20457;-55
2022/06/28 12:50:35;;;;;;;6.70;5.43;;;;;;;27.05;55.29;96966.31;10435619;28;20446;-54
2022/06/28 12:55:35;;;;;;;6.43;4.78;;;;;;;27.07;53.15;96907.69;10453454;28;20562;-57
2022/06/28 13:00:36;;;;;;;4.83;4.40;;;;;;;28.13;49.83;96858.47;10453033;28;20199;-55
2022/06/28 13:05:37;;;;;;;4.72;4.00;;;;;;;28.53;50.22;96891.94;10453298;28;20437;-54
2022/06/28 13:10:37;;;;;;;4.65;4.03;;;;;;;29.75;46.75;96832.72;10452650;28;20187;-59
2022/06/28 13:15:37;;;;;;;5.07;3.93;;;;;;;30.33;45.09;96803.22;10452782;28;20231;-57
2022/06/28 13:20:38;;;;;;;6.35;4.00;;;;;;;28.43;47.69;96803.81;10452746;28;20496;-55
2022/06/28 13:25:38;;;;;;;4.93;3.83;;;;;;;28.49;48.46;96802.75;10452262;28;20208;-53
2022/06/28 13:30:41;;;;;;;4.93;3.53;;;;;;;31.20;40.17;96698.00;10452427;28;20230;-56
2022/06/28 13:35:43;;;;;;;5.75;3.78;;;;;;;32.26;40.75;96733.91;10460716;28;21015;-59
2022/06/28 13:40:46;;;;;;;4.60;3.42;;;;;;;32.91;39.46;96713.25;10460877;28;20666;-57
2022/06/28 13:45:47;;;;;;;5.13;3.53;;;;;;;32.98;40.26;96736.16;10460198;28;20255;-57
2022/06/28 13:50:47;;;;;;;3.67;3.27;;;;;;;33.17;38.95;96702.69;10460198;28;20223;-57
2022/06/28 13:55:48;;;;;;;3.90;3.15;;;;;;;35.67;34.95;96684.97;10460363;28;20488;-58
2022/06/28 14:00:49;;;;;;;3.78;3.47;;;;;;;32.69;38.88;96674.84;10459830;28;20191;-56
2022/06/28 14:05:49;;;;;;;4.20;3.25;;;;;;;31.70;39.86;96670.53;10460018;28;20305;-57
2022/06/28 14:10:51;;;;;;;4.50;3.40;;;;;;;32.17;39.14;96696.63;10459652;28;20199;-57
2022/06/28 14:15:52;;;;;;;3.65;3.35;;;;;;;28.77;43.40;96663.88;10459241;28;20481;-59
2022/06/28 14:20:52;;;;;;;3.90;2.85;;;;;;;33.28;37.86;96701.41;10459576;28;20191;-57
2022/06/28 14:25:53;;;;;;;6.23;3.03;;;;;;;35.67;34.74;96687.69;10458705;28;20728;-56
2022/06/28 14:30:53;;;;;;;4.07;2.73;;;;;;;36.54;34.21;96703.16;10458800;28;20854;-57
2022/06/28 14:35:53;;;;;;;3.20;2.90;;;;;;;38.05;31.23;96651.63;10458435;28;20669;-58
2022/06/28 14:40:54;;;;;;;2.90;2.33;;;;;;;37.01;32.14;96620.44;10458869;28;20437;-60
2022/06/28 14:45:54;;;;;;;4.13;3.30;;;;;;;32.96;38.67;96661.59;10457534;28;20481;-58
2022/06/28 14:50:55;;;;;;;4.97;2.77;;;;;;;33.04;39.17;96675.25;10477279;23;20308;-58
2022/06/28 14:55:56;;;;;;;5.43;3.38;;;;;;;30.23;42.67;96668.97;10457740;28;20298;-57
2022/06/28 15:00:57;;;;;;;4.10;3.22;;;;;;;29.06;42.82;96633.56;10440096;28;20315;-56
2022/06/28 15:05:58;;;;;;;4.10;3.13;;;;;;;29.87;42.57;96669.28;10457537;28;20214;-58
2022/06/28 15:10:58;;;;;;;3.25;2.95;;;;;;;30.06;44.63;96744.22;10457311;28;20243;-57
2022/06/28 15:15:59;;;;;;;5.13;3.20;;;;;;;29.79;42.94;96672.56;10457250;28;20724;-60
2022/06/28 15:20:59;;;;;;;2.97;2.67;;;;;;;30.70;40.65;96644.19;10456899;28;20724;-58
2022/06/28 15:31:18;;;;;;;2.95;2.63;;;;;;;34.25;36.26;96645.94;10455751;28;20462;-60
2022/06/28 15:36:19;;;;;;;3.60;2.50;;;;;;;34.86;34.02;96588.22;10456571;28;20218;-57
2022/06/28 15:41:20;;;;;;;6.57;3.33;;;;;;;34.35;33.28;96536.88;10456058;28;20462;-60
2022/06/28 15:46:21;;;;;;;4.60;3.03;;;;;;;32.92;34.32;96498.56;10456132;28;20669;-55
2022/06/28 15:51:22;;;;;;;3.65;2.65;;;;;;;32.66;37.56;96601.41;10492750;28;20234;-60
2022/06/28 15:56:22;;;;;;;4.28;2.88;;;;;;;32.78;37.65;96609.03;10495739;28;20280;-60
2022/06/28 16:01:23;;;;;;;3.33;2.53;;;;;;;30.07;40.44;96586.44;10496908;28;20294;-61
2022/06/28 16:06:23;;;;;;;2.72;2.38;;;;;;;31.11;39.85;96620.16;10496405;28;20434;-61
2022/06/28 16:11:23;;;;;;;3.10;2.90;;;;;;;29.23;41.68;96573.88;10496399;28;20234;-60
2022/06/28 16:16:24;;;;;;;3.53;2.80;;;;;;;30.72;39.85;96604.97;10496519;28;20485;-56
2022/06/28 16:21:24;;;;;;;4.30;2.60;;;;;;;29.39;42.58;96622.34;10495949;28;20223;-61
2022/06/28 16:26:25;;;;;;;4.80;2.83;;;;;;;28.55;40.60;96525.94;10496209;28;20472;-60
2022/06/28 16:31:25;;;;;;;3.60;2.83;;;;;;;27.86;44.83;96636.00;10494914;28;20462;-60
2022/06/28 16:36:25;;;;;;;4.32;3.05;;;;;;;27.11;46.56;96641.78;10493564;28;20268;-60
2022/06/28 16:41:26;;;;;;;3.37;3.00;;;;;;;26.59;47.01;96654.97;10495265;28;20735;-58
2022/06/28 16:46:27;;;;;;;4.38;3.53;;;;;;;26.41;47.95;96661.56;10494939;28;21006;-60
2022/06/28 16:51:28;;;;;;;3.85;3.03;;;;;;;25.15;53.21;96747.56;10494979;28;20238;-60
2022/06/28 16:56:28;;;;;;;3.37;2.97;;;;;;;25.81;50.23;96695.72;10494628;28;20226;-57
2022/06/28 17:01:29;;;;;;;3.58;2.80;;;;;;;25.57;48.31;96631.66;10494517;28;20457;-60
2022/06/28 17:11:48;;;;;;;7.05;3.17;;;;;;;24.48;50.13;96636.00;10494508;28;20429;-60
2022/06/28 17:16:49;;;;;;;3.13;2.70;;;;;;;24.70;50.93;96644.91;10493992;28;20231;-60
2022/06/28 17:21:49;;;;;;;4.53;3.10;;;;;;;24.35;52.77;96666.59;10493759;28;20201;-60
2022/06/28 17:26:49;;;;;;;6.60;2.92;;;;;;;24.49;49.84;96608.97;10494101;28;20211;-60
2022/06/28 17:31:50;;;;;;;3.67;2.75;;;;;;;24.39;49.17;96582.88;10493394;28;20191;-59
2022/06/28 17:36:50;;;;;;;5.97;3.17;;;;;;;24.02;52.86;96665.59;10493647;28;20231;-60
2022/06/28 17:41:52;;;;;;;3.20;2.90;;;;;;;23.43;55.74;96700.66;10493824;28;20194;-57
2022/06/28 17:46:52;;;;;;;5.18;2.97;;;;;;;23.59;54.55;96669.69;10495091;28;20765;-58
2022/06/28 17:51:53;;;;;;;3.38;3.05;;;;;;;23.69;53.80;96659.97;10493753;28;20194;-59
2022/06/28 17:56:53;;;;;;;3.40;3.00;;;;;;;23.50;56.31;96720.84;10492868;28;20222;-58
2022/06/28 18:01:53;;;;;;;3.70;3.15;;;;;;;23.34;56.27;96735.00;10493392;28;20625;-56
2022/06/28 18:06:54;;;;;;;3.63;3.00;;;;;;;23.26;56.21;96738.84;10492999;28;20550;-58
2022/06/28 18:11:54;;;;;;;3.20;2.90;;;;;;;23.18;56.36;96741.88;10492944;28;20662;-54
2022/06/28 18:16:55;;;;;;;3.92;2.88;;;;;;;22.91;57.21;96741.56;10493297;28;20327;-59
2022/06/28 18:21:57;;;;;;;4.38;2.65;;;;;;;22.93;56.64;96742.94;10500414;28;20191;-60
2022/06/28 18:26:58;;;;;;;4.75;2.90;;;;;;;22.60;59.38;96802.28;10500318;28;20184;-58
2022/06/28 18:31:58;;;;;;;5.13;2.38;;;;;;;22.35;61.23;96808.66;10499979;28;20286;-59
2022/06/28 18:36:58;;;;;;;5.45;3.00;;;;;;;21.92;62.33;96834.47;10499882;28;20234;-58
2022/06/28 18:42:00;;;;;;;6.40;3.28;;;;;;;21.52;65.86;96898.97;10500200;28;20202;-59
2022/06/28 18:47:00;;;;;;;3.45;3.15;;;;;;;20.01;71.10;96930.75;10499335;28;20725;-56
2022/06/28 18:52:01;;;;;;;3.80;3.50;;;;;;;19.47;75.60;96923.94;10499994;28;20264;-58
2022/06/28 18:57:01;;;;;;;3.90;3.45;;;;;;;19.21;78.46;96915.81;10499362;28;20219;-58
2022/06/28 19:02:01;;;;;;;4.13;3.42;;;;;;;18.83;81.04;96902.31;10499016;28;20290;-59
2022/06/28 19:07:03;;;;;;;5.78;4.65;;;;;;;18.45;83.83;96908.19;10498871;28;20238;-55
2022/06/28 19:12:04;;;;;;;5.57;4.07;;;;;;;18.13;88.17;96923.84;10498791;28;20218;-59
2022/06/28 19:17:04;;;;;;;8.63;4.38;;;;;;;17.68;94.66;96944.63;10498438;28;20293;-59
2022/06/28 19:22:05;;;;;;;7.85;5.38;;;;;;;17.52;100.00;96951.03;10498559;28;20551;-59
2022/06/28 19:27:05;;;;;;;8.40;4.70;;;;;;;17.34;100.00;96968.25;10497913;28;20198;-55
2022/06/28 19:32:06;;;;;;;8.77;5.43;;;;;;;17.28;100.00;96976.97;10497759;28;20188;-59
2022/06/28 19:37:07;;;;;;;5.90;4.90;;;;;;;17.20;100.00;96996.47;10497293;28;20219;-54
2022/06/28 19:42:07;;;;;;;7.18;5.30;;;;;;;16.99;100.00;96986.72;10497534;28;20187;-58
2022/06/28 19:47:07;;;;;;;10.13;5.05;;;;;;;16.99;100.00;96994.66;10500464;28;20724;-56
2022/06/28 19:52:08;;;;;;;6.20;5.60;;;;;;;16.77;100.00;96991.97;10497024;28;20277;-52
2022/06/28 19:57:08;;;;;;;7.07;5.18;;;;;;;16.69;100.00;96997.41;10496886;28;20647;-57
2022/06/28 20:02:08;;;;;;;6.57;5.93;;;;;;;16.43;100.00;96984.69;10496416;28;20941;-57
2022/06/28 20:07:09;;;;;;;6.90;6.18;;;;;;;16.33;100.00;96985.00;10496453;28;20240;-53
2022/06/28 20:12:09;;;;;;;13.45;5.70;;;;;;;16.38;100.00;96985.25;10496278;28;20191;-57
2022/06/28 20:17:10;;;;;;;8.35;6.55;;;;;;;16.15;100.00;96988.03;10496037;28;20219;-59
2022/06/28 20:22:10;;;;;;;6.47;5.78;;;;;;;16.01;100.00;96987.06;10498934;28;20241;-56
2022/06/28 20:27:11;;;;;;;8.60;6.78;;;;;;;15.92;100.00;96982.06;10495407;28;20227;-54
2022/06/28 20:32:12;;;;;;;7.97;6.05;;;;;;;15.85;100.00;96976.72;10495592;28;20190;-59
2022/06/28 20:37:12;;;;;;;9.52;7.20;;;;;;;15.75;100.00;96978.78;10495192;28;20310;-58
2022/06/28 20:42:13;;;;;;;7.65;6.80;;;;;;;15.63;100.00;96975.75;10494862;28;20561;-60
2022/06/28 20:52:22;;;;;;;10.55;7.07;;;;;;;15.57;100.00;96953.53;10408462;28;20687;-51
2022/06/28 20:57:24;;;;;;;11.82;7.75;;;;;;;15.51;100.00;96947.19;10412319;28;20213;-50
2022/06/28 21:02:24;;;;;;;7.95;7.00;;;;;;;15.48;100.00;96938.78;10412060;28;20224;-50
2022/06/28 21:07:25;;;;;;;8.75;7.53;;;;;;;15.42;100.00;96940.34;10411826;28;20259;-50
2022/06/28 21:12:25;;;;;;;8.98;7.28;;;;;;;15.38;100.00;96933.78;10411879;28;20200;-51
2022/06/28 21:17:26;;;;;;;12.02;7.68;;;;;;;15.22;100.00;96929.50;10411380;28;20223;-51
2022/06/28 21:22:26;;;;;;;10.40;7.22;;;;;;;15.28;100.00;96928.78;10411833;28;20663;-50
2022/06/28 21:27:27;;;;;;;9.07;7.95;;;;;;;15.24;100.00;96927.50;10411066;28;20734;-50
2022/06/28 21:32:27;;;;;;;8.70;7.80;;;;;;;15.16;100.00;96923.13;10410910;28;20235;-52
2022/06/28 21:37:27;;;;;;;9.73;8.60;;;;;;;15.17;100.00;96905.44;10411032;28;20223;-50
2022/06/28 21:42:28;;;;;;;13.45;8.43;;;;;;;15.35;100.00;96897.19;10410998;28;20203;-50
2022/06/28 21:47:28;;;;;;;10.98;8.15;;;;;;;15.37;100.00;96891.72;10411751;28;20651;-56
2022/06/28 21:52:28;;;;;;;9.27;8.25;;;;;;;15.24;100.00;96895.81;10453641;28;20599;-54
2022/06/28 21:57:29;;;;;;;8.38;7.57;;;;;;;15.15;100.00;96896.91;10460310;28;20603;-55
2022/06/28 22:02:29;;;;;;;9.93;7.82;;;;;;;15.15;100.00;96891.63;10460054;28;20670;-54
2022/06/28 22:07:29;;;;;;;10.30;9.23;;;;;;;15.09;100.00;96893.16;10459792;28;20665;-56
2022/06/28 22:12:30;;;;;;;11.00;8.02;;;;;;;15.09;100.00;96892.34;10459876;28;21021;-51
2022/06/28 22:17:30;;;;;;;8.95;7.78;;;;;;;15.21;100.00;96888.25;10459230;28;20782;-52
2022/06/28 22:22:31;;;;;;;8.95;8.02;;;;;;;15.28;100.00;96875.16;10459447;28;20725;-50
2022/06/28 22:27:31;;;;;;;9.57;8.43;;;;;;;15.25;100.00;96873.72;10459217;28;20256;-50
2022/06/28 22:32:35;;;;;;;11.05;7.35;;;;;;;15.10;100.00;96871.06;10458868;28;20576;-50
2022/06/28 22:37:35;;;;;;;8.70;7.72;;;;;;;15.08;100.00;96880.97;10458563;28;20232;-53
2022/06/28 22:42:35;;;;;;;9.80;7.68;;;;;;;15.05;100.00;96865.50;10458351;28;20346;-56
2022/06/28 22:47:36;;;;;;;9.32;7.82;;;;;;;15.08;100.00;96864.31;10458218;28;20211;-52
2022/06/28 22:52:36;;;;;;;9.82;8.02;;;;;;;15.05;100.00;96872.59;10458347;28;20698;-53
2022/06/28 22:57:36;;;;;;;9.60;8.48;;;;;;;15.21;100.00;96871.63;10457868;28;20224;-52
2022/06/28 23:02:37;;;;;;;9.32;8.43;;;;;;;15.27;100.00;96871.69;10457376;28;20241;-55
2022/06/28 23:07:37;;;;;;;8.30;7.50;;;;;;;15.37;100.00;96873.25;10457329;28;20701;-55
2022/06/28 23:12:37;;;;;;;11.48;8.50;;;;;;;15.44;100.00;96863.59;10457488;28;20659;-51
2022/06/28 23:17:38;;;;;;;8.30;7.50;;;;;;;15.55;100.00;96844.63;10457007;28;20766;-57
2022/06/28 23:22:38;;;;;;;8.07;7.32;;;;;;;15.66;100.00;96825.66;10456945;28;20666;-56
2022/06/28 23:27:39;;;;;;;7.90;7.10;;;;;;;15.68;100.00;96820.19;10456959;28;20704;-55
2022/06/28 23:32:39;;;;;;;8.02;7.13;;;;;;;15.75;100.00;96815.81;10455986;28;20192;-54
2022/06/28 23:37:39;;;;;;;8.38;7.53;;;;;;;15.70;100.00;96795.25;10456371;28;20232;-52
2022/06/28 23:42:40;;;;;;;10.07;7.35;;;;;;;15.49;100.00;96787.28;10456358;28;20210;-53